< < Back
Terminal Aerodrome Forecast


Current Version              Previous Versions:   1  2  3  4  5  6  7  8  9  

Terminal Aerodrome Forecast

590
FTUS44 KBMX 242300
TAFBHM
TAF
KBHM 242320Z 2500/2524 18008KT P6SM SCT040 BKN250
     FM250500 20010KT 4SM SHRA VCTS SCT007CB BKN020 OVC050
     FM251200 28013KT P6SM OVC020
     FM251600 28011KT P6SM OVC050=

Latest METAR

619
SAUS70 KWBC 250200 RRH
MTRBHM
METAR KBHM 250153Z 13004KT 10SM FEW070 22/13 A2987 RMK AO2 SLP110
T02220128


USA.gov is the U.S. government's official web portal to all federal, state and local government web resources and services.